Observations for BOSCOMBE DOWN, United Kingdom (EGDM)

EGDM 221350Z 36013KT 9999 FEW034 13/03 Q1037 BLU NOSIG  
EGDM 221250Z 01014KT 9999 FEW030 13/04 Q1038 BLU NOSIG  
EGDM 221150Z 01014KT 9999 FEW025 12/04 Q1037 BLU NOSIG  
EGDM 221050Z 01014KT 9999 FEW024 12/06 Q1038 BLU NOSIG  
EGDM 220950Z 01012KT 9999 FEW022 11/06 Q1037 BLU NOSIG  
EGDM 220850Z 35009KT CAVOK 08/05 Q1038 BLU NOSIG
EGDM 220750Z 32007KT CAVOK 06/04 Q1037 BLU NOSIG
EGDM 220650Z 34009KT 9999 FEW030 04/02 Q1036 BLU NOSIG  
EGDM 220550Z 35010KT 9999 FEW030 06/03 Q1035 BLU
EGDM 220450Z AUTO 01009KT 9999 FEW250/// 07/03 Q1035
EGDM 220350Z AUTO 01011KT 9999 BKN240/// 07/03 Q1034
EGDM 220250Z AUTO 36013KT 9999 BKN230/// 08/04 Q1033
EGDM 220150Z AUTO 36015KT 9999 NCD 09/04 Q1033  
EGDM 220050Z AUTO 35017KT 9999 FEW060/// SCT080/// BKN110/// 10/06 Q1032
EGDM 212350Z AUTO 36014KT 9999 FEW050/// SCT110/// 11/07 Q1032  
EGDM 212250Z AUTO 36017KT 9999 BKN030/// BKN044/// 12/07 Q1031  
EGDM 212150Z AUTO 36014KT 9999 BKN032/// SCT050/// 12/09 Q1030 RERA 
EGDM 212050Z AUTO 36017KT 9999 -RA SCT009/// BKN018/// 13/10 Q1029  
EGDM 211950Z AUTO 31007KT 9999 BKN023/// 12/11 Q1029
EGDM 211850Z AUTO 31006KT 9999 BKN023/// 13/11 Q1028
EGDM 211750Z AUTO 30007KT 9999 FEW026/// 13/10 Q1028
EGDM 211650Z AUTO 31007KT 9999 NCD 15/11 Q1027  
EGDM 211550Z AUTO 29008KT 9999 NCD 17/11 Q1027  
EGDM 211450Z AUTO 28009KT 9999 NCD 18/11 Q1027  
EGDM 211350Z AUTO 28007KT 9999 NCD 18/11 Q1027